Time;durP1;ratioP1;P1;durP2;ratioP2;P2;SDS_P1;SDS_P2;PMS_P1;PMS_P2;Temp;Humidity;BMP_temperature;BMP_pressure;BME280_temperature;BME280_humidity;BME280_pressure;Samples;Min_cycle;Max_cycle;Signal;HPM_P1;HPM_P2
2023/01/06 00:02:15;;;;;;;;;;;;;;;10.07;76.44;98919.63;7386042;19;20300;-88
2023/01/06 00:04:42;;;;;;;;;;;;;;;10.09;76.25;98925.63;7382886;19;19915;-85
2023/01/06 00:07:09;;;;;;;;;;;;;;;10.02;76.46;98927.16;7391369;19;19945;-86
2023/01/06 00:09:35;;;;;;;;;;;;;;;9.98;76.46;98912.56;7387220;19;19929;-86
2023/01/06 00:12:02;;;;;;;;;;;;;;;10.02;76.64;98923.69;7384143;19;20466;-86
2023/01/06 00:14:29;;;;;;;;;;;;;;;10.02;77.20;98916.56;7378656;19;20755;-85
2023/01/06 00:16:55;;;;;;;;;;;;;;;10.13;76.90;98922.69;7381874;19;19915;-85
2023/01/06 00:19:22;;;;;;;;;;;;;;;10.20;76.73;98921.19;7376355;19;20603;-85
2023/01/06 00:21:49;;;;;;;;;;;;;;;10.20;76.38;98910.59;7380956;19;20352;-87
2023/01/06 00:24:15;;;;;;;;;;;;;;;10.27;76.40;98911.72;7385796;19;19915;-85
2023/01/06 00:26:42;;;;;;;;;;;;;;;10.27;76.56;98911.72;7381259;19;19955;-85
2023/01/06 00:29:08;;;;;;;;;;;;;;;10.29;76.51;98901.84;7380930;19;20318;-85
2023/01/06 00:31:38;;;;;;;;;;;;;;;10.34;76.31;98896.97;7374418;19;20394;-86
2023/01/06 00:34:06;;;;;;;;;;;;;;;10.35;76.42;98903.94;7377053;19;19931;-85
2023/01/06 00:36:33;;;;;;;;;;;;;;;10.37;76.44;98898.50;7377390;19;19922;-86
2023/01/06 00:39:00;;;;;;;;;;;;;;;10.36;76.32;98897.66;7381015;19;19918;-85
2023/01/06 00:44:12;;;;;;;;;;;;;;;10.36;76.38;98887.09;7379279;19;19944;-85
2023/01/06 00:46:39;;;;;;;;;;;;;;;10.35;76.06;98887.22;7379748;19;19939;-85
2023/01/06 00:49:06;;;;;;;;;;;;;;;10.28;76.19;98879.84;7377057;19;19914;-86
2023/01/06 00:51:37;;;;;;;;;;;;;;;10.28;76.17;98886.97;7379839;19;20361;-85
2023/01/06 00:54:03;;;;;;;;;;;;;;;10.29;76.24;98880.69;7379436;19;19953;-85
2023/01/06 00:56:30;;;;;;;;;;;;;;;10.25;76.10;98880.13;7379972;19;19919;-86
2023/01/06 00:58:57;;;;;;;;;;;;;;;10.21;76.32;98883.16;7394107;19;19919;-86
2023/01/06 01:01:23;;;;;;;;;;;;;;;10.19;76.24;98880.69;7384589;19;20256;-85
2023/01/06 01:03:50;;;;;;;;;;;;;;;10.17;76.30;98879.16;7385873;19;19927;-85
2023/01/06 01:06:16;;;;;;;;;;;;;;;10.04;76.26;98876.81;7384557;19;19927;-86
2023/01/06 01:08:43;;;;;;;;;;;;;;;9.99;76.33;98881.66;7383811;19;20253;-85
2023/01/06 01:12:08;;;;;;;;;;;;;;;9.98;76.75;98880.84;7378343;19;19930;-86
2023/01/06 01:13:57;;;;;;;;;;;;;;;9.94;77.12;98878.59;7378543;19;20269;-85
2023/01/06 01:16:24;;;;;;;;;;;;;;;9.93;76.87;98877.78;7383617;19;20344;-87
2023/01/06 01:18:51;;;;;;;;;;;;;;;9.89;77.62;98876.38;7390441;19;19923;-86
2023/01/06 01:21:17;;;;;;;;;;;;;;;9.91;77.96;98886.81;7387524;19;19926;-84
2023/01/06 01:23:44;;;;;;;;;;;;;;;9.85;78.02;98882.94;7390941;19;19923;-84
2023/01/06 01:26:11;;;;;;;;;;;;;;;9.95;77.65;98885.56;7388848;19;19977;-85
2023/01/06 01:28:38;;;;;;;;;;;;;;;9.98;77.29;98886.13;7390324;19;19943;-85
2023/01/06 01:31:05;;;;;;;;;;;;;;;9.95;77.43;98878.44;7387459;19;19943;-85
2023/01/06 01:33:32;;;;;;;;;;;;;;;10.00;77.04;98878.88;7390238;19;19916;-86
2023/01/06 01:36:04;;;;;;;;;;;;;;;9.93;77.15;98875.13;7390306;19;20249;-85
2023/01/06 01:38:31;;;;;;;;;;;;;;;9.88;76.90;98869.44;7387162;19;19959;-85
2023/01/06 01:40:57;;;;;;;;;;;;;;;9.69;77.25;98857.06;7390102;19;19919;-85
2023/01/06 01:43:24;;;;;;;;;;;;;;;9.65;77.34;98869.69;7384926;19;19927;-87
2023/01/06 01:45:51;;;;;;;;;;;;;;;9.61;77.16;98867.44;7392153;19;19926;-85
2023/01/06 01:48:18;;;;;;;;;;;;;;;9.56;77.43;98859.13;7386520;19;19962;-85
2023/01/06 01:50:46;;;;;;;;;;;;;;;9.53;77.71;98859.38;7384205;19;19926;-85
2023/01/06 01:53:23;;;;;;;;;;;;;;;9.52;77.88;98861.19;7388026;19;19922;-85
2023/01/06 01:55:49;;;;;;;;;;;;;;;9.59;78.11;98864.97;7390795;19;19919;-85
2023/01/06 01:58:20;;;;;;;;;;;;;;;9.60;78.22;98863.97;7387192;19;19929;-85
2023/01/06 02:00:48;;;;;;;;;;;;;;;9.57;78.13;98866.06;7390626;19;19918;-85
2023/01/06 02:03:14;;;;;;;;;;;;;;;9.64;78.33;98869.84;7388518;19;19929;-85
2023/01/06 02:05:43;;;;;;;;;;;;;;;9.56;78.36;98867.88;7388455;19;19922;-85
2023/01/06 02:08:29;;;;;;;;;;;;;;;9.69;78.35;98854.41;7387592;19;19922;-85
2023/01/06 02:10:55;;;;;;;;;;;;;;;9.73;78.37;98847.84;7385537;19;20819;-85
2023/01/06 02:13:23;;;;;;;;;;;;;;;9.51;79.39;98862.16;7383728;19;20275;-85
2023/01/06 02:15:49;;;;;;;;;;;;;;;9.65;78.70;98853.84;7387475;19;19935;-88
2023/01/06 02:18:32;;;;;;;;;;;;;;;9.53;78.97;98854.09;7374645;19;19988;-87
2023/01/06 02:21:19;;;;;;;;;;;;;;;9.73;78.35;98852.31;7387033;19;19978;-85
2023/01/06 02:24:21;;;;;;;;;;;;;;;9.65;78.27;98845.06;7383008;19;19907;-85
2023/01/06 02:27:11;;;;;;;;;;;;;;;9.53;79.40;98854.09;7381974;19;19961;-87
2023/01/06 02:29:57;;;;;;;;;;;;;;;9.64;78.86;98840.78;7381499;19;20598;-87
2023/01/06 02:32:27;;;;;;;;;;;;;;;9.69;78.45;98843.84;7381649;19;19922;-85
2023/01/06 02:35:07;;;;;;;;;;;;;;;9.67;78.45;98840.50;7383462;19;19918;-85
2023/01/06 02:37:35;;;;;;;;;;;;;;;9.72;78.50;98840.91;7383086;19;19926;-87
2023/01/06 02:40:20;;;;;;;;;;;;;;;9.68;78.37;98842.16;7385778;19;19921;-86
2023/01/06 02:42:52;;;;;;;;;;;;;;;9.61;78.75;98841.03;7383088;19;19953;-85
2023/01/06 02:45:37;;;;;;;;;;;;;;;9.67;78.93;98837.84;7386521;19;19915;-86
2023/01/06 02:48:04;;;;;;;;;;;;;;;9.81;78.28;98834.78;7384046;19;20210;-85
2023/01/06 02:50:39;;;;;;;;;;;;;;;9.74;78.57;98841.63;7392653;19;19947;-86
2023/01/06 02:53:23;;;;;;;;;;;;;;;9.75;78.29;98837.16;7391600;19;19986;-85
2023/01/06 02:55:51;;;;;;;;;;;;;;;9.83;78.18;98834.66;7388681;19;19948;-85
2023/01/06 02:58:26;;;;;;;;;;;;;;;9.88;78.14;98841.19;7382251;19;19919;-85
2023/01/06 03:00:58;;;;;;;;;;;;;;;9.80;78.17;98834.94;7382322;19;19954;-86
2023/01/06 03:03:28;;;;;;;;;;;;;;;9.75;77.94;98832.72;7379125;19;19933;-85
2023/01/06 03:05:56;;;;;;;;;;;;;;;9.75;78.60;98829.25;7384284;19;19922;-85
2023/01/06 03:08:25;;;;;;;;;;;;;;;9.91;78.21;98826.03;7392756;19;19929;-85
2023/01/06 03:10:52;;;;;;;;;;;;;;;9.56;78.87;98832.72;7396009;19;19923;-87
2023/01/06 03:13:29;;;;;;;;;;;;;;;9.61;78.90;98841.03;7391039;19;19957;-87
2023/01/06 03:15:57;;;;;;;;;;;;;;;9.57;78.92;98840.47;7393857;19;19918;-86
2023/01/06 03:18:24;;;;;;;;;;;;;;;9.72;78.29;98840.09;7392721;19;19927;-85
2023/01/06 03:20:50;;;;;;;;;;;;;;;9.67;78.18;98829.94;7390987;19;19953;-87
2023/01/06 03:23:17;;;;;;;;;;;;;;;9.60;78.44;98837.56;7387432;19;20562;-85
2023/01/06 03:25:43;;;;;;;;;;;;;;;9.65;78.22;98830.06;7378440;19;19918;-86
2023/01/06 03:28:11;;;;;;;;;;;;;;;9.70;77.87;98826.19;7381224;19;19927;-85
2023/01/06 03:30:44;;;;;;;;;;;;;;;9.66;77.96;98822.97;7378766;19;20421;-86
2023/01/06 03:33:14;;;;;;;;;;;;;;;9.70;78.14;98827.00;7379889;19;20523;-86
2023/01/06 03:35:53;;;;;;;;;;;;;;;9.77;77.96;98816.69;7379769;19;19929;-86
2023/01/06 03:38:32;;;;;;;;;;;;;;;9.80;77.88;98814.63;7379171;19;20300;-86
2023/01/06 03:41:02;;;;;;;;;;;;;;;9.73;78.40;98818.78;7378999;19;19930;-85
2023/01/06 03:43:31;;;;;;;;;;;;;;;9.82;77.67;98820.63;7379118;19;19919;-85
2023/01/06 03:45:59;;;;;;;;;;;;;;;9.84;77.72;98820.47;7381633;19;19919;-85
2023/01/06 03:48:32;;;;;;;;;;;;;;;9.78;77.74;98815.75;7377365;19;19914;-85
2023/01/06 03:51:11;;;;;;;;;;;;;;;9.71;77.56;98819.91;7380591;19;19925;-85
2023/01/06 03:53:41;;;;;;;;;;;;;;;9.59;77.10;98820.06;7377952;19;19923;-86
2023/01/06 03:56:14;;;;;;;;;;;;;;;9.38;77.28;98814.91;7379735;19;19922;-86
2023/01/06 03:58:41;;;;;;;;;;;;;;;9.17;77.96;98820.28;7380660;19;19943;-86
2023/01/06 04:01:08;;;;;;;;;;;;;;;9.16;77.89;98821.25;7378310;19;19918;-85
2023/01/06 04:03:35;;;;;;;;;;;;;;;9.09;77.76;98820.13;7380545;19;20577;-85
2023/01/06 04:06:02;;;;;;;;;;;;;;;8.99;77.98;98814.81;7382938;19;19975;-86
2023/01/06 04:08:30;;;;;;;;;;;;;;;8.94;77.81;98808.28;7383501;19;19978;-86
2023/01/06 04:10:57;;;;;;;;;;;;;;;8.89;77.84;98815.75;7385320;19;19927;-85
2023/01/06 04:13:25;;;;;;;;;;;;;;;8.73;78.05;98816.25;7384503;19;19923;-85
2023/01/06 04:15:54;;;;;;;;;;;;;;;8.61;79.15;98817.31;7394364;19;19915;-85
2023/01/06 04:18:20;;;;;;;;;;;;;;;8.56;78.73;98817.72;7423662;19;19938;-89
2023/01/06 04:20:47;;;;;;;;;;;;;;;8.43;79.38;98817.94;7417000;19;19947;-85
2023/01/06 04:23:18;;;;;;;;;;;;;;;8.39;79.26;98813.03;7385690;19;19971;-85
2023/01/06 04:25:45;;;;;;;;;;;;;;;8.34;79.21;98808.97;7386602;19;19925;-87
2023/01/06 04:28:14;;;;;;;;;;;;;;;8.18;79.92;98821.78;7384475;19;19915;-87
2023/01/06 04:30:43;;;;;;;;;;;;;;;8.09;81.07;98814.66;7383093;19;19922;-86
2023/01/06 04:33:10;;;;;;;;;;;;;;;8.17;80.76;98821.94;7378976;19;19939;-85
2023/01/06 04:35:39;;;;;;;;;;;;;;;8.25;80.59;98824.75;7385487;19;20370;-85
2023/01/06 04:38:05;;;;;;;;;;;;;;;8.34;80.63;98814.22;7381991;19;20347;-85
2023/01/06 04:40:32;;;;;;;;;;;;;;;8.38;79.97;98804.28;7381848;19;20353;-85
2023/01/06 04:43:05;;;;;;;;;;;;;;;8.39;79.50;98805.09;7381796;19;20018;-86
2023/01/06 04:45:32;;;;;;;;;;;;;;;8.44;80.39;98819.59;7381844;19;20002;-85
2023/01/06 04:48:02;;;;;;;;;;;;;;;8.33;80.66;98815.22;7381627;19;20895;-85
2023/01/06 04:50:28;;;;;;;;;;;;;;;8.43;81.30;98809.19;7381059;19;19947;-86
2023/01/06 04:52:55;;;;;;;;;;;;;;;8.49;80.94;98813.94;7378248;19;20273;-87
2023/01/06 04:55:21;;;;;;;;;;;;;;;8.51;80.49;98815.47;7380511;19;19918;-85
2023/01/06 04:57:48;;;;;;;;;;;;;;;8.58;80.16;98807.84;7382128;19;19928;-85
2023/01/06 05:00:15;;;;;;;;;;;;;;;8.66;80.18;98809.84;7380156;19;19921;-84
2023/01/06 05:02:41;;;;;;;;;;;;;;;8.73;80.19;98805.69;7375966;19;20361;-86
2023/01/06 05:05:08;;;;;;;;;;;;;;;8.78;80.04;98798.22;7379690;19;20355;-87
2023/01/06 05:07:34;;;;;;;;;;;;;;;8.79;79.95;98798.09;7383124;19;20282;-85
2023/01/06 05:10:01;;;;;;;;;;;;;;;8.82;79.90;98790.88;7380743;19;20294;-85
2023/01/06 05:12:29;;;;;;;;;;;;;;;8.93;79.86;98794.25;7377699;19;19914;-85
2023/01/06 05:14:56;;;;;;;;;;;;;;;9.01;79.73;98796.22;7384163;19;19939;-85
2023/01/06 05:17:22;;;;;;;;;;;;;;;9.10;79.84;98799.84;7383141;19;19922;-85
2023/01/06 05:19:49;;;;;;;;;;;;;;;9.13;79.95;98795.09;7380979;19;19918;-85
2023/01/06 05:22:15;;;;;;;;;;;;;;;9.20;79.81;98798.06;7380414;19;19979;-88
2023/01/06 05:24:42;;;;;;;;;;;;;;;9.27;79.61;98793.91;7381060;19;19927;-85
2023/01/06 05:27:09;;;;;;;;;;;;;;;9.37;79.81;98796.53;7381778;19;19947;-86
2023/01/06 05:29:35;;;;;;;;;;;;;;;9.40;79.67;98785.69;7382443;19;19940;-85
2023/01/06 05:32:02;;;;;;;;;;;;;;;9.45;79.82;98784.34;7387380;19;19934;-87
2023/01/06 18:36:57;;;;;;;;;;;;;;;10.13;74.68;98888.34;7369854;19;19957;-85
2023/01/06 18:39:28;;;;;;;;;;;;;;;10.21;74.60;98894.56;7386963;19;19934;-84
2023/01/06 18:42:18;;;;;;;;;;;;;;;10.33;74.17;98880.28;7387880;19;19914;-84
2023/01/06 18:44:45;;;;;;;;;;;;;;;10.22;74.36;98892.78;7380089;19;19986;-85
2023/01/06 18:47:15;;;;;;;;;;;;;;;10.03;74.94;98885.69;7386235;19;19925;-84
2023/01/06 18:49:42;;;;;;;;;;;;;;;10.14;74.71;98890.00;7381788;19;19915;-84
2023/01/06 18:52:23;;;;;;;;;;;;;;;10.17;74.60;98890.56;7388178;19;20015;-84
2023/01/06 18:54:50;;;;;;;;;;;;;;;10.26;74.51;98894.16;7381607;19;19923;-84
2023/01/06 18:57:28;;;;;;;;;;;;;;;10.14;74.78;98882.06;7377674;19;19943;-85
2023/01/06 19:00:21;;;;;;;;;;;;;;;10.11;75.12;98881.38;7379794;19;19947;-84
2023/01/06 19:02:49;;;;;;;;;;;;;;;10.16;74.79;98880.94;7368716;19;20067;-83
2023/01/06 19:05:15;;;;;;;;;;;;;;;10.12;75.18;98876.94;7364772;19;19922;-83
2023/01/06 19:07:42;;;;;;;;;;;;;;;9.90;75.95;98888.63;7368791;19;19929;-83
2023/01/06 19:10:22;;;;;;;;;;;;;;;9.72;76.15;98880.56;7375867;19;19959;-82
2023/01/06 19:12:48;;;;;;;;;;;;;;;9.63;76.56;98878.72;7366117;19;19918;-83
2023/01/06 19:15:15;;;;;;;;;;;;;;;9.64;76.87;98878.59;7372369;19;19930;-83
2023/01/06 19:17:41;;;;;;;;;;;;;;;9.84;76.38;98878.59;7372285;19;19943;-83
2023/01/06 19:20:15;;;;;;;;;;;;;;;9.85;76.58;98885.56;7372808;19;21888;-83
2023/01/06 19:22:42;;;;;;;;;;;;;;;9.93;76.22;98892.81;7366040;19;20411;-83
2023/01/06 19:25:09;;;;;;;;;;;;;;;9.99;75.70;98893.06;7367134;19;19934;-83
2023/01/06 19:27:37;;;;;;;;;;;;;;;10.03;75.52;98890.97;7371069;19;19923;-83
2023/01/06 19:30:24;;;;;;;;;;;;;;;10.00;75.64;98894.72;7372419;19;19914;-83
2023/01/06 19:32:50;;;;;;;;;;;;;;;10.03;75.24;98896.25;7372077;19;19975;-83
2023/01/06 19:35:25;;;;;;;;;;;;;;;10.08;75.00;98899.31;7373732;19;19939;-83
2023/01/06 19:38:02;;;;;;;;;;;;;;;10.05;75.11;98897.78;7373026;19;19915;-83
2023/01/06 19:40:30;;;;;;;;;;;;;;;10.10;75.16;98892.91;7368637;19;19926;-83
2023/01/06 19:42:58;;;;;;;;;;;;;;;10.11;74.78;98891.97;7374993;19;19925;-84
2023/01/06 19:45:30;;;;;;;;;;;;;;;10.16;74.84;98888.88;7374545;19;19937;-83
2023/01/06 19:47:59;;;;;;;;;;;;;;;10.17;74.86;98889.75;7354859;19;19994;-81
2023/01/06 19:50:26;;;;;;;;;;;;;;;10.15;74.91;98891.69;7363288;19;20580;-82
2023/01/06 19:52:58;;;;;;;;;;;;;;;10.16;75.11;98888.88;7364781;19;19922;-82
2023/01/06 19:55:26;;;;;;;;;;;;;;;10.16;74.92;98888.88;7366766;19;19925;-82
2023/01/06 19:57:54;;;;;;;;;;;;;;;10.19;74.89;98885.97;7358670;19;19922;-81
2023/01/06 20:00:22;;;;;;;;;;;;;;;10.20;75.41;98890.28;7365965;19;20012;-82
2023/01/06 20:02:50;;;;;;;;;;;;;;;10.21;75.14;98891.09;7365711;19;19929;-81
2023/01/06 20:05:17;;;;;;;;;;;;;;;10.21;75.19;98891.94;7364640;19;19918;-81
2023/01/06 20:07:44;;;;;;;;;;;;;;;10.22;75.08;98895.44;7361104;19;19929;-82
2023/01/06 20:10:10;;;;;;;;;;;;;;;10.20;75.09;98886.81;7367121;19;19918;-81
2023/01/06 20:12:37;;;;;;;;;;;;;;;10.20;74.88;98885.00;7364779;19;19921;-82
2023/01/06 20:15:04;;;;;;;;;;;;;;;10.18;75.37;98889.56;7365578;19;19918;-82
2023/01/06 20:17:32;;;;;;;;;;;;;;;10.19;75.27;98888.63;7366623;19;19930;-82
2023/01/06 20:19:58;;;;;;;;;;;;;;;10.20;75.42;98873.59;7362841;19;19958;-82
2023/01/06 20:22:25;;;;;;;;;;;;;;;10.14;75.63;98877.63;7364091;19;19926;-82
2023/01/06 20:24:52;;;;;;;;;;;;;;;9.98;76.28;98872.91;7365973;19;20601;-81
2023/01/06 20:27:20;;;;;;;;;;;;;;;9.88;76.42;98875.53;7372294;19;19914;-82
2023/01/06 20:29:47;;;;;;;;;;;;;;;9.84;76.42;98878.59;7366282;19;19923;-82
2023/01/06 20:32:13;;;;;;;;;;;;;;;9.61;77.05;98878.00;7369689;19;19915;-82
2023/01/06 20:34:40;;;;;;;;;;;;;;;9.55;77.36;98875.94;7365484;19;19930;-82
2023/01/06 20:37:07;;;;;;;;;;;;;;;9.85;76.42;98872.34;7371885;19;19914;-82
2023/01/06 20:39:34;;;;;;;;;;;;;;;9.89;76.34;98881.66;7366875;19;19932;-82
2023/01/06 20:42:05;;;;;;;;;;;;;;;9.70;76.97;98881.66;7368615;19;19921;-82
2023/01/06 20:44:32;;;;;;;;;;;;;;;9.75;77.26;98874.16;7365657;19;19918;-80
2023/01/06 20:46:59;;;;;;;;;;;;;;;9.81;76.93;98878.88;7365482;19;20319;-81
2023/01/06 20:49:26;;;;;;;;;;;;;;;9.71;77.05;98873.56;7364113;19;19922;-82
2023/01/06 20:51:52;;;;;;;;;;;;;;;9.65;76.93;98874.13;7366109;19;19914;-81
2023/01/06 20:54:22;;;;;;;;;;;;;;;9.64;77.26;98877.75;7362681;19;20013;-81
2023/01/06 20:56:49;;;;;;;;;;;;;;;9.56;77.66;98872.34;7360042;19;19918;-82
2023/01/06 20:59:15;;;;;;;;;;;;;;;9.70;77.22;98873.72;7366811;19;20560;-81
2023/01/06 21:01:43;;;;;;;;;;;;;;;9.59;77.75;98864.97;7369202;19;20345;-81
2023/01/06 21:04:09;;;;;;;;;;;;;;;9.70;77.37;98876.38;7369234;19;19919;-82
2023/01/06 21:06:36;;;;;;;;;;;;;;;9.45;77.98;98870.63;7369687;19;19923;-81
2023/01/06 21:09:03;;;;;;;;;;;;;;;9.54;77.90;98871.63;7366970;19;20269;-82
2023/01/06 21:11:29;;;;;;;;;;;;;;;9.64;77.60;98870.66;7372931;19;20241;-82
2023/01/06 21:13:56;;;;;;;;;;;;;;;9.61;77.53;98864.81;7370763;19;19927;-81
2023/01/06 21:16:23;;;;;;;;;;;;;;;9.61;77.74;98864.81;7381577;19;19919;-82
2023/01/06 21:18:50;;;;;;;;;;;;;;;9.83;76.80;98871.66;7375316;19;19918;-82
2023/01/06 21:21:16;;;;;;;;;;;;;;;9.81;76.90;98863.03;7376126;19;19919;-82
2023/01/06 21:23:43;;;;;;;;;;;;;;;9.87;76.45;98871.25;7377918;19;19919;-81
2023/01/06 21:26:10;;;;;;;;;;;;;;;9.82;76.34;98865.53;7384062;19;19923;-82
2023/01/06 21:28:36;;;;;;;;;;;;;;;9.93;76.16;98864.56;7382054;19;19914;-81
2023/01/06 21:31:03;;;;;;;;;;;;;;;9.91;76.33;98868.31;7380039;19;19914;-82
2023/01/06 21:33:31;;;;;;;;;;;;;;;9.88;76.39;98857.03;7372513;19;19914;-82
2023/01/06 21:35:57;;;;;;;;;;;;;;;9.90;76.52;98856.91;7367873;19;20751;-81
2023/01/06 21:38:24;;;;;;;;;;;;;;;9.94;76.48;98855.66;7369240;19;19922;-82
2023/01/06 21:43:07;;;;;;;;;;;;;;;9.98;76.58;98851.75;7376160;19;19911;-82
2023/01/06 21:43:39;;;;;;;;;;;;;;;9.98;76.39;98848.25;7368534;19;19929;-81
2023/01/06 21:46:06;;;;;;;;;;;;;;;10.01;76.39;98854.13;7377694;19;19934;-82
2023/01/06 21:48:33;;;;;;;;;;;;;;;10.02;76.41;98853.13;7380826;19;19919;-82
2023/01/06 21:50:59;;;;;;;;;;;;;;;10.05;76.13;98860.78;7378026;19;19970;-82
2023/01/06 21:53:29;;;;;;;;;;;;;;;10.05;76.21;98863.41;7377926;19;19935;-81
2023/01/06 21:55:56;;;;;;;;;;;;;;;10.04;76.06;98860.94;7375805;19;19911;-81
2023/01/06 21:58:23;;;;;;;;;;;;;;;10.02;76.22;98869.00;7371991;19;19921;-82
2023/01/06 22:00:50;;;;;;;;;;;;;;;10.03;76.01;98861.91;7369280;19;19926;-81
2023/01/06 22:03:16;;;;;;;;;;;;;;;10.04;75.94;98861.75;7375922;19;19915;-81
2023/01/06 22:05:43;;;;;;;;;;;;;;;9.94;76.15;98866.22;7369555;19;19986;-82
2023/01/06 22:08:10;;;;;;;;;;;;;;;10.01;75.70;98853.28;7375270;19;19998;-82
2023/01/06 22:10:37;;;;;;;;;;;;;;;9.65;77.00;98851.19;7370006;19;20266;-81
2023/01/06 22:13:09;;;;;;;;;;;;;;;9.68;77.04;98848.28;7374384;19;19914;-82
2023/01/06 22:15:36;;;;;;;;;;;;;;;9.60;76.88;98848.13;7370485;19;19922;-81
2023/01/06 22:18:03;;;;;;;;;;;;;;;9.68;77.07;98853.56;7371599;19;20294;-82
2023/01/06 22:20:32;;;;;;;;;;;;;;;9.88;76.43;98850.94;7375186;19;19915;-82
2023/01/06 22:23:01;;;;;;;;;;;;;;;9.55;77.39;98852.97;7369849;19;19918;-82
2023/01/06 22:25:27;;;;;;;;;;;;;;;9.72;76.75;98842.72;7368210;19;19921;-82
2023/01/06 22:27:54;;;;;;;;;;;;;;;9.89;76.66;98847.31;7363864;19;20337;-82
2023/01/06 22:30:20;;;;;;;;;;;;;;;9.97;76.16;98842.16;7374368;19;19926;-82
2023/01/06 22:32:47;;;;;;;;;;;;;;;9.99;75.78;98845.50;7369906;19;19930;-82
2023/01/06 22:35:14;;;;;;;;;;;;;;;9.98;76.02;98846.47;7370231;19;20384;-82
2023/01/06 22:37:43;;;;;;;;;;;;;;;10.01;75.84;98851.47;7374805;19;19914;-82
2023/01/06 22:40:10;;;;;;;;;;;;;;;10.03;76.14;98852.19;7375821;19;20352;-82
2023/01/06 22:42:36;;;;;;;;;;;;;;;9.85;76.40;98849.41;7374898;19;19918;-82
2023/01/06 22:45:03;;;;;;;;;;;;;;;9.93;76.08;98850.53;7371624;19;19918;-82
2023/01/06 22:47:30;;;;;;;;;;;;;;;9.88;76.23;98853.56;7376196;19;19914;-82
2023/01/06 22:49:57;;;;;;;;;;;;;;;9.91;75.99;98847.19;7371401;19;19918;-82
2023/01/06 22:52:24;;;;;;;;;;;;;;;9.96;75.81;98848.41;7367808;19;19922;-82
2023/01/06 22:54:50;;;;;;;;;;;;;;;9.98;75.91;98845.63;7367057;19;19918;-82
2023/01/06 22:57:19;;;;;;;;;;;;;;;9.99;75.85;98856.06;7384959;19;20301;-82
2023/01/06 22:59:46;;;;;;;;;;;;;;;9.96;75.70;98850.22;7381326;19;19922;-82
2023/01/06 23:02:13;;;;;;;;;;;;;;;10.00;75.69;98852.44;7383834;19;19966;-82
2023/01/06 23:04:40;;;;;;;;;;;;;;;10.00;75.71;98852.44;7378972;19;20530;-81
2023/01/06 23:07:06;;;;;;;;;;;;;;;9.99;75.57;98850.78;7382421;19;19915;-82
2023/01/06 23:09:33;;;;;;;;;;;;;;;10.01;75.62;98848.00;7387072;19;19951;-82
2023/01/06 23:11:59;;;;;;;;;;;;;;;10.03;75.65;98849.53;7385654;19;19942;-82
2023/01/06 23:14:26;;;;;;;;;;;;;;;10.00;75.62;98849.78;7380589;19;19928;-82
2023/01/06 23:16:55;;;;;;;;;;;;;;;9.99;75.62;98842.84;7377374;19;19911;-82
2023/01/06 23:19:21;;;;;;;;;;;;;;;10.00;75.38;98847.16;7383423;19;19914;-82
2023/01/06 23:21:48;;;;;;;;;;;;;;;10.03;75.29;98838.97;7382603;19;19921;-82
2023/01/06 23:24:14;;;;;;;;;;;;;;;10.01;75.20;98843.56;7382173;19;19915;-81
2023/01/06 23:26:43;;;;;;;;;;;;;;;10.02;75.27;98837.28;7383947;19;19922;-81
2023/01/06 23:29:10;;;;;;;;;;;;;;;9.97;74.95;98839.50;7383366;19;19943;-82
2023/01/06 23:31:38;;;;;;;;;;;;;;;9.99;75.15;98832.28;7381550;19;19922;-82
2023/01/06 23:34:06;;;;;;;;;;;;;;;9.98;75.06;98838.53;7366764;19;20621;-81
2023/01/06 23:36:33;;;;;;;;;;;;;;;10.04;75.17;98837.97;7367607;19;21043;-82
2023/01/06 23:39:00;;;;;;;;;;;;;;;10.03;75.31;98841.59;7364626;19;19931;-82
2023/01/06 23:41:29;;;;;;;;;;;;;;;10.03;75.27;98836.31;7361771;19;19921;-82
2023/01/06 23:43:56;;;;;;;;;;;;;;;10.05;75.17;98839.63;7361387;19;19915;-81
2023/01/06 23:46:30;;;;;;;;;;;;;;;9.99;74.69;98839.38;7356987;19;20463;-81
2023/01/06 23:48:57;;;;;;;;;;;;;;;9.96;74.66;98839.66;7361481;19;19918;-81
2023/01/06 23:51:24;;;;;;;;;;;;;;;9.83;74.45;98826.72;7362322;19;19921;-81
2023/01/06 23:53:52;;;;;;;;;;;;;;;9.77;74.21;98827.28;7363595;19;19931;-82
2023/01/06 23:56:20;;;;;;;;;;;;;;;9.78;74.06;98832.44;7365335;19;20275;-82
2023/01/06 23:58:47;;;;;;;;;;;;;;;9.80;74.25;98829.66;7365924;19;20431;-82
